sensor_id;sensor_type;location;lat;lon;timestamp;pressure;altitude;pressure_sealevel;temperature;humidity
65376;BME280;51976;47.332;9.404;2023-06-10T00:02:20;92325.69;;;16.86;62.62
65376;BME280;51976;47.332;9.404;2023-06-10T00:04:45;92320.06;;;16.91;62.80
65376;BME280;51976;47.332;9.404;2023-06-10T00:07:11;92325.28;;;16.76;63.40
65376;BME280;51976;47.332;9.404;2023-06-10T00:09:38;92325.28;;;16.76;62.72
65376;BME280;51976;47.332;9.404;2023-06-10T00:12:06;92322.59;;;16.46;63.48
65376;BME280;51976;47.332;9.404;2023-06-10T00:14:33;92321.28;;;16.32;63.96
65376;BME280;51976;47.332;9.404;2023-06-10T00:16:58;92329.09;;;16.33;64.03
65376;BME280;51976;47.332;9.404;2023-06-10T00:19:24;92327.84;;;16.51;63.51
65376;BME280;51976;47.332;9.404;2023-06-10T00:21:51;92326.50;;;16.87;62.38
65376;BME280;51976;47.332;9.404;2023-06-10T00:24:17;92327.75;;;16.69;62.84
65376;BME280;51976;47.332;9.404;2023-06-10T00:26:43;92330.53;;;16.81;62.53
65376;BME280;51976;47.332;9.404;2023-06-10T00:29:10;92321.69;;;16.63;63.13
65376;BME280;51976;47.332;9.404;2023-06-10T00:31:36;92316.97;;;16.51;63.72
65376;BME280;51976;47.332;9.404;2023-06-10T00:34:02;92325.50;;;16.71;62.93
65376;BME280;51976;47.332;9.404;2023-06-10T00:36:27;92316.47;;;16.79;62.45
65376;BME280;51976;47.332;9.404;2023-06-10T00:38:53;92324.16;;;16.77;62.79
65376;BME280;51976;47.332;9.404;2023-06-10T00:41:18;92329.38;;;16.40;63.82
65376;BME280;51976;47.332;9.404;2023-06-10T00:43:44;92324.75;;;16.41;64.24
65376;BME280;51976;47.332;9.404;2023-06-10T00:46:11;92332.56;;;16.42;64.04
65376;BME280;51976;47.332;9.404;2023-06-10T00:48:37;92322.78;;;16.41;64.21
65376;BME280;51976;47.332;9.404;2023-06-10T00:51:04;92329.38;;;16.40;64.49
65376;BME280;51976;47.332;9.404;2023-06-10T00:53:30;92326.31;;;16.42;64.11
65376;BME280;51976;47.332;9.404;2023-06-10T00:55:56;92319.41;;;16.44;64.49
65376;BME280;51976;47.332;9.404;2023-06-10T00:58:23;92321.31;;;16.73;63.29
65376;BME280;51976;47.332;9.404;2023-06-10T01:00:48;92315.16;;;16.64;63.44
65376;BME280;51976;47.332;9.404;2023-06-10T01:03:15;92313.25;;;16.65;63.63
65376;BME280;51976;47.332;9.404;2023-06-10T01:05:42;92311.66;;;16.64;63.69
65376;BME280;51976;47.332;9.404;2023-06-10T01:08:28;92315.06;;;16.73;63.39
65376;BME280;51976;47.332;9.404;2023-06-10T01:11:00;92304.47;;;16.80;63.14
65376;BME280;51976;47.332;9.404;2023-06-10T01:13:27;92303.06;;;16.74;62.98
65376;BME280;51976;47.332;9.404;2023-06-10T01:15:57;92299.41;;;16.70;63.09
65376;BME280;51976;47.332;9.404;2023-06-10T01:18:23;92298.19;;;16.58;63.50
65376;BME280;51976;47.332;9.404;2023-06-10T01:20:49;92307.03;;;16.55;63.86
65376;BME280;51976;47.332;9.404;2023-06-10T01:23:15;92300.47;;;16.56;63.83
65376;BME280;51976;47.332;9.404;2023-06-10T01:25:59;92293.28;;;16.52;63.85
65376;BME280;51976;47.332;9.404;2023-06-10T01:28:38;92300.47;;;16.56;64.06
65376;BME280;51976;47.332;9.404;2023-06-10T01:31:13;92302.66;;;16.63;63.95
65376;BME280;51976;47.332;9.404;2023-06-10T01:33:45;92309.16;;;16.71;63.86
65376;BME280;51976;47.332;9.404;2023-06-10T01:36:12;92313.88;;;16.62;64.00
65376;BME280;51976;47.332;9.404;2023-06-10T01:38:40;92310.22;;;16.37;64.42
65376;BME280;51976;47.332;9.404;2023-06-10T01:41:08;92312.50;;;16.26;64.85
65376;BME280;51976;47.332;9.404;2023-06-10T01:43:36;92313.97;;;16.23;64.41
65376;BME280;51976;47.332;9.404;2023-06-10T01:46:02;92310.91;;;16.25;64.31
65376;BME280;51976;47.332;9.404;2023-06-10T01:48:27;92315.03;;;16.31;64.33
65376;BME280;51976;47.332;9.404;2023-06-10T01:50:53;92317.94;;;16.26;64.52
65376;BME280;51976;47.332;9.404;2023-06-10T01:53:20;92315.50;;;16.33;64.38
65376;BME280;51976;47.332;9.404;2023-06-10T01:55:46;92309.03;;;16.17;64.79
65376;BME280;51976;47.332;9.404;2023-06-10T01:58:11;92316.63;;;16.32;64.37
65376;BME280;51976;47.332;9.404;2023-06-10T02:00:37;92316.16;;;16.30;64.20
65376;BME280;51976;47.332;9.404;2023-06-10T02:03:02;92311.25;;;16.23;64.48
65376;BME280;51976;47.332;9.404;2023-06-10T02:05:27;92315.88;;;16.23;64.40
65376;BME280;51976;47.332;9.404;2023-06-10T02:07:53;92318.75;;;16.27;64.57
65376;BME280;51976;47.332;9.404;2023-06-10T02:10:18;92311.91;;;16.41;63.72
65376;BME280;51976;47.332;9.404;2023-06-10T02:12:43;92316.69;;;16.44;63.16
65376;BME280;51976;47.332;9.404;2023-06-10T02:15:09;92307.63;;;16.40;63.26
65376;BME280;51976;47.332;9.404;2023-06-10T02:17:34;92314.63;;;16.41;63.04
65376;BME280;51976;47.332;9.404;2023-06-10T02:20:00;92325.06;;;16.39;63.15
65376;BME280;51976;47.332;9.404;2023-06-10T02:22:29;92317.47;;;16.24;63.65
65376;BME280;51976;47.332;9.404;2023-06-10T02:24:54;92319.25;;;16.20;63.83
65376;BME280;51976;47.332;9.404;2023-06-10T02:27:20;92323.97;;;16.11;63.87
65376;BME280;51976;47.332;9.404;2023-06-10T02:29:45;92330.53;;;15.72;65.16
65376;BME280;51976;47.332;9.404;2023-06-10T02:32:11;92329.28;;;15.61;65.75
65376;BME280;51976;47.332;9.404;2023-06-10T02:34:36;92324.97;;;15.68;65.73
65376;BME280;51976;47.332;9.404;2023-06-10T02:37:02;92331.34;;;15.72;65.29
65376;BME280;51976;47.332;9.404;2023-06-10T02:39:28;92340.13;;;15.69;65.58
65376;BME280;51976;47.332;9.404;2023-06-10T02:41:53;92331.47;;;15.84;65.07
65376;BME280;51976;47.332;9.404;2023-06-10T02:44:19;92338.34;;;15.82;65.12
65376;BME280;51976;47.332;9.404;2023-06-10T02:46:44;92336.13;;;15.75;65.33
65376;BME280;51976;47.332;9.404;2023-06-10T02:49:11;92334.41;;;15.62;65.53
65376;BME280;51976;47.332;9.404;2023-06-10T02:51:36;92333.59;;;15.70;65.50
65376;BME280;51976;47.332;9.404;2023-06-10T02:54:02;92335.66;;;15.73;65.38
65376;BME280;51976;47.332;9.404;2023-06-10T02:56:28;92335.53;;;15.61;65.51
65376;BME280;51976;47.332;9.404;2023-06-10T02:58:53;92330.03;;;15.23;66.74
65376;BME280;51976;47.332;9.404;2023-06-10T03:01:18;92348.69;;;15.33;66.71
65376;BME280;51976;47.332;9.404;2023-06-10T03:03:45;92341.00;;;15.35;66.30
65376;BME280;51976;47.332;9.404;2023-06-10T03:06:12;92344.19;;;15.46;66.07
65376;BME280;51976;47.332;9.404;2023-06-10T03:08:38;92353.72;;;15.69;65.54
65376;BME280;51976;47.332;9.404;2023-06-10T03:11:03;92344.44;;;15.70;65.04
65376;BME280;51976;47.332;9.404;2023-06-10T03:13:29;92349.28;;;15.47;65.82
65376;BME280;51976;47.332;9.404;2023-06-10T03:15:54;92350.31;;;15.26;66.86
65376;BME280;51976;47.332;9.404;2023-06-10T03:18:20;92352.50;;;15.49;66.37
65376;BME280;51976;47.332;9.404;2023-06-10T03:20:45;92347.22;;;15.44;66.35
65376;BME280;51976;47.332;9.404;2023-06-10T03:23:11;92350.56;;;15.50;66.13
65376;BME280;51976;47.332;9.404;2023-06-10T03:25:36;92341.91;;;15.65;65.67
65376;BME280;51976;47.332;9.404;2023-06-10T03:28:02;92344.16;;;15.54;66.18
65376;BME280;51976;47.332;9.404;2023-06-10T03:30:28;92343.41;;;15.37;66.75
65376;BME280;51976;47.332;9.404;2023-06-10T03:32:53;92347.94;;;15.07;67.64
65376;BME280;51976;47.332;9.404;2023-06-10T03:35:19;92353.06;;;14.82;68.31
65376;BME280;51976;47.332;9.404;2023-06-10T03:37:44;92355.94;;;15.03;67.50
65376;BME280;51976;47.332;9.404;2023-06-10T03:40:10;92354.63;;;15.27;66.61
65376;BME280;51976;47.332;9.404;2023-06-10T03:42:36;92356.50;;;15.43;66.03
65376;BME280;51976;47.332;9.404;2023-06-10T03:45:02;92355.38;;;15.36;66.01
65376;BME280;51976;47.332;9.404;2023-06-10T03:47:33;92361.13;;;15.34;66.36
65376;BME280;51976;47.332;9.404;2023-06-10T03:50:01;92366.94;;;15.15;67.33
65376;BME280;51976;47.332;9.404;2023-06-10T03:52:27;92357.03;;;15.28;66.88
65376;BME280;51976;47.332;9.404;2023-06-10T03:54:52;92360.81;;;15.36;66.60
65376;BME280;51976;47.332;9.404;2023-06-10T03:57:17;92357.19;;;15.32;66.58
65376;BME280;51976;47.332;9.404;2023-06-10T03:59:43;92362.28;;;15.16;66.99
65376;BME280;51976;47.332;9.404;2023-06-10T04:02:08;92361.50;;;15.15;67.07
65376;BME280;51976;47.332;9.404;2023-06-10T04:04:34;92362.03;;;14.74;68.17
65376;BME280;51976;47.332;9.404;2023-06-10T04:07:00;92364.56;;;14.79;68.15
65376;BME280;51976;47.332;9.404;2023-06-10T04:09:25;92358.00;;;14.89;67.90
65376;BME280;51976;47.332;9.404;2023-06-10T04:11:51;92348.88;;;15.19;67.12
65376;BME280;51976;47.332;9.404;2023-06-10T04:14:16;92354.59;;;15.35;66.63
65376;BME280;51976;47.332;9.404;2023-06-10T04:16:42;92353.66;;;15.31;66.84
65376;BME280;51976;47.332;9.404;2023-06-10T04:19:08;92363.72;;;15.31;66.72
65376;BME280;51976;47.332;9.404;2023-06-10T04:21:33;92360.06;;;15.27;66.95
65376;BME280;51976;47.332;9.404;2023-06-10T04:23:58;92359.53;;;15.33;66.49
65376;BME280;51976;47.332;9.404;2023-06-10T04:26:24;92362.59;;;15.32;66.38
65376;BME280;51976;47.332;9.404;2023-06-10T04:28:51;92364.78;;;15.55;65.92
65376;BME280;51976;47.332;9.404;2023-06-10T04:31:16;92356.34;;;15.57;65.64
65376;BME280;51976;47.332;9.404;2023-06-10T04:33:41;92357.72;;;15.63;65.77
65376;BME280;51976;47.332;9.404;2023-06-10T04:36:07;92362.06;;;15.55;65.97
65376;BME280;51976;47.332;9.404;2023-06-10T04:38:32;92365.09;;;15.54;66.02
65376;BME280;51976;47.332;9.404;2023-06-10T04:40:57;92369.91;;;15.48;66.47
65376;BME280;51976;47.332;9.404;2023-06-10T04:43:23;92370.72;;;15.57;66.11
65376;BME280;51976;47.332;9.404;2023-06-10T04:45:49;92379.28;;;15.77;65.61
65376;BME280;51976;47.332;9.404;2023-06-10T04:48:14;92380.06;;;15.86;65.28
65376;BME280;51976;47.332;9.404;2023-06-10T04:50:40;92377.00;;;15.87;65.31
65376;BME280;51976;47.332;9.404;2023-06-10T04:53:05;92371.38;;;15.93;65.37
65376;BME280;51976;47.332;9.404;2023-06-10T04:55:34;92378.81;;;16.13;64.76
65376;BME280;51976;47.332;9.404;2023-06-10T04:58:00;92375.41;;;16.16;64.74
65376;BME280;51976;47.332;9.404;2023-06-10T05:00:25;92376.53;;;16.15;65.09
65376;BME280;51976;47.332;9.404;2023-06-10T05:02:50;92382.53;;;16.08;65.29
65376;BME280;51976;47.332;9.404;2023-06-10T05:05:17;92385.94;;;15.88;65.88
65376;BME280;51976;47.332;9.404;2023-06-10T05:07:42;92381.50;;;15.83;66.22
65376;BME280;51976;47.332;9.404;2023-06-10T05:10:08;92386.13;;;15.83;66.29
65376;BME280;51976;47.332;9.404;2023-06-10T05:12:33;92391.00;;;16.07;65.73
65376;BME280;51976;47.332;9.404;2023-06-10T05:14:59;92391.03;;;16.66;63.91
65376;BME280;51976;47.332;9.404;2023-06-10T05:17:24;92389.44;;;17.06;62.58
65376;BME280;51976;47.332;9.404;2023-06-10T05:19:50;92390.06;;;17.45;61.49
65376;BME280;51976;47.332;9.404;2023-06-10T05:22:16;92390.03;;;17.66;60.72
65376;BME280;51976;47.332;9.404;2023-06-10T05:24:43;92390.13;;;18.14;59.31
65376;BME280;51976;47.332;9.404;2023-06-10T05:27:09;92389.78;;;18.16;58.72
65376;BME280;51976;47.332;9.404;2023-06-10T05:29:34;92392.53;;;18.40;58.33
65376;BME280;51976;47.332;9.404;2023-06-10T05:32:00;92383.56;;;18.76;57.02
65376;BME280;51976;47.332;9.404;2023-06-10T05:34:31;92394.09;;;19.02;56.74
65376;BME280;51976;47.332;9.404;2023-06-10T05:36:56;92387.88;;;18.65;57.74
65376;BME280;51976;47.332;9.404;2023-06-10T05:39:21;92396.19;;;19.21;56.31
65376;BME280;51976;47.332;9.404;2023-06-10T05:41:47;92395.69;;;18.91;56.80
65376;BME280;51976;47.332;9.404;2023-06-10T05:44:12;92393.41;;;19.05;56.57
65376;BME280;51976;47.332;9.404;2023-06-10T05:46:38;92399.44;;;19.51;55.41
65376;BME280;51976;47.332;9.404;2023-06-10T05:49:03;92402.22;;;19.67;54.76
65376;BME280;51976;47.332;9.404;2023-06-10T05:51:29;92394.66;;;18.96;55.69
65376;BME280;51976;47.332;9.404;2023-06-10T05:53:54;92403.19;;;19.06;55.75
65376;BME280;51976;47.332;9.404;2023-06-10T05:56:20;92409.34;;;19.03;56.06
65376;BME280;51976;47.332;9.404;2023-06-10T05:58:47;92395.03;;;18.82;56.46
65376;BME280;51976;47.332;9.404;2023-06-10T06:01:13;92408.47;;;18.87;56.54
65376;BME280;51976;47.332;9.404;2023-06-10T06:03:38;92405.06;;;18.78;56.51
65376;BME280;51976;47.332;9.404;2023-06-10T06:06:04;92411.03;;;19.48;54.88
65376;BME280;51976;47.332;9.404;2023-06-10T06:08:29;92401.56;;;20.01;53.49
65376;BME280;51976;47.332;9.404;2023-06-10T06:10:55;92410.19;;;19.87;53.79
65376;BME280;51976;47.332;9.404;2023-06-10T06:13:20;92402.53;;;19.93;53.79
65376;BME280;51976;47.332;9.404;2023-06-10T06:15:46;92409.50;;;19.90;53.86
65376;BME280;51976;47.332;9.404;2023-06-10T06:18:11;92391.69;;;19.97;53.86
65376;BME280;51976;47.332;9.404;2023-06-10T06:20:36;92396.13;;;20.17;53.82
65376;BME280;51976;47.332;9.404;2023-06-10T06:23:02;92393.63;;;19.96;54.37
65376;BME280;51976;47.332;9.404;2023-06-10T06:25:27;92404.75;;;19.59;55.14
65376;BME280;51976;47.332;9.404;2023-06-10T06:27:52;92403.19;;;19.74;54.26
65376;BME280;51976;47.332;9.404;2023-06-10T06:30:18;92391.53;;;20.21;53.22
65376;BME280;51976;47.332;9.404;2023-06-10T06:32:43;92393.94;;;20.22;52.92
65376;BME280;51976;47.332;9.404;2023-06-10T06:35:09;92388.16;;;20.12;53.07
65376;BME280;51976;47.332;9.404;2023-06-10T06:37:35;92403.34;;;20.25;53.26
65376;BME280;51976;47.332;9.404;2023-06-10T06:40:01;92401.59;;;20.33;53.21
65376;BME280;51976;47.332;9.404;2023-06-10T06:42:26;92400.78;;;20.01;53.85
65376;BME280;51976;47.332;9.404;2023-06-10T06:44:52;92395.88;;;20.38;53.56
65376;BME280;51976;47.332;9.404;2023-06-10T06:47:17;92399.16;;;20.43;53.67
65376;BME280;51976;47.332;9.404;2023-06-10T06:49:46;92401.69;;;20.36;54.10
65376;BME280;51976;47.332;9.404;2023-06-10T06:52:11;92397.19;;;20.59;53.60
65376;BME280;51976;47.332;9.404;2023-06-10T06:54:36;92390.63;;;20.80;53.48
65376;BME280;51976;47.332;9.404;2023-06-10T06:57:02;92387.97;;;21.18;52.95
65376;BME280;51976;47.332;9.404;2023-06-10T06:59:27;92397.78;;;20.84;53.39
65376;BME280;51976;47.332;9.404;2023-06-10T07:01:53;92396.63;;;20.85;53.83
65376;BME280;51976;47.332;9.404;2023-06-10T07:04:20;92384.59;;;21.06;53.44
65376;BME280;51976;47.332;9.404;2023-06-10T07:06:47;92387.69;;;20.88;54.22
65376;BME280;51976;47.332;9.404;2023-06-10T07:09:12;92385.72;;;21.05;53.78
65376;BME280;51976;47.332;9.404;2023-06-10T07:11:38;92397.38;;;20.67;54.53
65376;BME280;51976;47.332;9.404;2023-06-10T07:14:04;92393.09;;;20.85;54.41
65376;BME280;51976;47.332;9.404;2023-06-10T07:16:29;92395.13;;;20.88;54.62
65376;BME280;51976;47.332;9.404;2023-06-10T07:18:54;92393.56;;;20.55;55.05
65376;BME280;51976;47.332;9.404;2023-06-10T07:21:20;92393.78;;;20.47;55.21
65376;BME280;51976;47.332;9.404;2023-06-10T07:23:46;92392.81;;;20.39;55.55
65376;BME280;51976;47.332;9.404;2023-06-10T07:26:11;92396.81;;;20.29;56.08
65376;BME280;51976;47.332;9.404;2023-06-10T07:28:39;92398.66;;;20.10;56.11
65376;BME280;51976;47.332;9.404;2023-06-10T07:31:04;92398.47;;;20.46;55.44
65376;BME280;51976;47.332;9.404;2023-06-10T07:33:30;92400.06;;;20.47;55.75
65376;BME280;51976;47.332;9.404;2023-06-10T07:35:55;92401.53;;;20.60;54.69
65376;BME280;51976;47.332;9.404;2023-06-10T07:38:21;92406.41;;;20.51;54.69
65376;BME280;51976;47.332;9.404;2023-06-10T07:40:46;92409.00;;;20.32;55.56
65376;BME280;51976;47.332;9.404;2023-06-10T07:43:12;92407.97;;;20.21;55.17
65376;BME280;51976;47.332;9.404;2023-06-10T07:45:40;92399.47;;;20.10;55.98
65376;BME280;51976;47.332;9.404;2023-06-10T07:48:05;92398.66;;;19.94;56.41
65376;BME280;51976;47.332;9.404;2023-06-10T07:50:30;92401.94;;;20.15;55.77
65376;BME280;51976;47.332;9.404;2023-06-10T07:52:56;92401.84;;;20.27;55.58
65376;BME280;51976;47.332;9.404;2023-06-10T07:55:21;92403.47;;;20.76;55.18
65376;BME280;51976;47.332;9.404;2023-06-10T07:57:47;92402.16;;;20.70;55.04
65376;BME280;51976;47.332;9.404;2023-06-10T08:00:12;92401.59;;;20.80;54.82
65376;BME280;51976;47.332;9.404;2023-06-10T08:02:38;92405.53;;;20.47;55.40
65376;BME280;51976;47.332;9.404;2023-06-10T08:05:04;92394.38;;;20.72;54.71
65376;BME280;51976;47.332;9.404;2023-06-10T08:07:30;92401.53;;;20.60;55.17
65376;BME280;51976;47.332;9.404;2023-06-10T08:09:56;92399.59;;;20.61;55.63
65376;BME280;51976;47.332;9.404;2023-06-10T08:12:21;92398.78;;;20.60;55.57
65376;BME280;51976;47.332;9.404;2023-06-10T08:14:46;92389.28;;;20.89;55.02
65376;BME280;51976;47.332;9.404;2023-06-10T08:17:12;92401.16;;;20.78;55.40
65376;BME280;51976;47.332;9.404;2023-06-10T08:19:37;92400.81;;;20.64;55.82
65376;BME280;51976;47.332;9.404;2023-06-10T08:22:03;92400.16;;;20.86;55.06
65376;BME280;51976;47.332;9.404;2023-06-10T08:24:28;92403.34;;;20.88;55.17
65376;BME280;51976;47.332;9.404;2023-06-10T08:26:54;92404.19;;;20.57;55.67
65376;BME280;51976;47.332;9.404;2023-06-10T08:29:21;92400.22;;;21.05;54.57
65376;BME280;51976;47.332;9.404;2023-06-10T08:31:47;92400.59;;;21.04;54.94
65376;BME280;51976;47.332;9.404;2023-06-10T08:34:12;92400.13;;;21.37;53.97
65376;BME280;51976;47.332;9.404;2023-06-10T08:36:37;92399.94;;;21.84;52.59
65376;BME280;51976;47.332;9.404;2023-06-10T08:39:03;92400.00;;;21.49;53.48
65376;BME280;51976;47.332;9.404;2023-06-10T08:41:30;92407.53;;;21.33;53.76
65376;BME280;51976;47.332;9.404;2023-06-10T08:44:13;92400.00;;;21.68;53.68
65376;BME280;51976;47.332;9.404;2023-06-10T08:46:44;92405.50;;;21.68;53.21
65376;BME280;51976;47.332;9.404;2023-06-10T08:49:10;92403.78;;;21.60;52.65
65376;BME280;51976;47.332;9.404;2023-06-10T08:51:42;92406.06;;;21.77;52.97
65376;BME280;51976;47.332;9.404;2023-06-10T08:54:15;92404.63;;;21.64;53.09
65376;BME280;51976;47.332;9.404;2023-06-10T08:56:44;92403.91;;;21.48;53.46
65376;BME280;51976;47.332;9.404;2023-06-10T08:59:11;92400.16;;;21.75;52.85
65376;BME280;51976;47.332;9.404;2023-06-10T09:01:38;92401.69;;;21.53;52.56
65376;BME280;51976;47.332;9.404;2023-06-10T09:04:04;92393.50;;;21.38;53.13
65376;BME280;51976;47.332;9.404;2023-06-10T09:06:32;92401.88;;;21.25;53.16
65376;BME280;51976;47.332;9.404;2023-06-10T09:08:58;92393.09;;;21.55;53.11
65376;BME280;51976;47.332;9.404;2023-06-10T09:11:24;92401.88;;;21.83;52.46
65376;BME280;51976;47.332;9.404;2023-06-10T09:13:50;92398.13;;;21.72;52.26
65376;BME280;51976;47.332;9.404;2023-06-10T09:16:16;92402.88;;;21.37;53.60
65376;BME280;51976;47.332;9.404;2023-06-10T09:18:42;92403.28;;;21.19;54.49
65376;BME280;51976;47.332;9.404;2023-06-10T09:21:08;92410.63;;;21.50;53.79
65376;BME280;51976;47.332;9.404;2023-06-10T09:23:33;92413.88;;;21.75;53.02
65376;BME280;51976;47.332;9.404;2023-06-10T09:25:59;92407.94;;;21.92;52.85
65376;BME280;51976;47.332;9.404;2023-06-10T09:28:25;92411.91;;;21.76;53.19
65376;BME280;51976;47.332;9.404;2023-06-10T09:31:02;92401.03;;;21.60;52.98
65376;BME280;51976;47.332;9.404;2023-06-10T09:33:27;92414.97;;;21.51;53.30
65376;BME280;51976;47.332;9.404;2023-06-10T09:35:53;92417.28;;;21.88;52.79
65376;BME280;51976;47.332;9.404;2023-06-10T09:38:22;92418.97;;;21.96;52.77
65376;BME280;51976;47.332;9.404;2023-06-10T09:40:54;92415.66;;;21.68;52.92
65376;BME280;51976;47.332;9.404;2023-06-10T09:43:20;92419.81;;;21.58;52.66
65376;BME280;51976;47.332;9.404;2023-06-10T09:45:50;92416.91;;;21.70;53.35
65376;BME280;51976;47.332;9.404;2023-06-10T09:48:18;92408.25;;;22.07;51.94
65376;BME280;51976;47.332;9.404;2023-06-10T09:50:44;92418.50;;;21.71;53.22
65376;BME280;51976;47.332;9.404;2023-06-10T09:53:10;92418.78;;;21.85;52.74
65376;BME280;51976;47.332;9.404;2023-06-10T09:55:39;92414.91;;;22.51;52.28
65376;BME280;51976;47.332;9.404;2023-06-10T09:58:06;92417.22;;;22.49;51.97
65376;BME280;51976;47.332;9.404;2023-06-10T10:00:32;92423.19;;;22.09;51.40
65376;BME280;51976;47.332;9.404;2023-06-10T10:02:58;92421.34;;;22.17;51.29
65376;BME280;51976;47.332;9.404;2023-06-10T10:05:24;92421.97;;;22.07;51.74
65376;BME280;51976;47.332;9.404;2023-06-10T10:07:49;92427.88;;;21.70;52.22
65376;BME280;51976;47.332;9.404;2023-06-10T10:10:17;92416.19;;;22.12;51.54
65376;BME280;51976;47.332;9.404;2023-06-10T10:12:46;92412.22;;;22.32;51.51
65376;BME280;51976;47.332;9.404;2023-06-10T10:15:11;92417.81;;;22.16;51.32
65376;BME280;51976;47.332;9.404;2023-06-10T10:17:40;92406.97;;;22.23;51.55
65376;BME280;51976;47.332;9.404;2023-06-10T10:20:12;92412.38;;;22.39;51.33
65376;BME280;51976;47.332;9.404;2023-06-10T10:22:39;92410.34;;;22.36;50.78
65376;BME280;51976;47.332;9.404;2023-06-10T10:25:13;92409.56;;;22.36;51.23
65376;BME280;51976;47.332;9.404;2023-06-10T10:27:48;92416.88;;;22.51;50.14
65376;BME280;51976;47.332;9.404;2023-06-10T10:30:17;92412.66;;;22.80;49.66
65376;BME280;51976;47.332;9.404;2023-06-10T10:32:59;92412.41;;;22.66;49.68
65376;BME280;51976;47.332;9.404;2023-06-10T10:35:26;92407.66;;;22.62;49.65
65376;BME280;51976;47.332;9.404;2023-06-10T10:37:53;92406.84;;;22.62;49.10
65376;BME280;51976;47.332;9.404;2023-06-10T10:40:22;92406.13;;;22.65;49.84
65376;BME280;51976;47.332;9.404;2023-06-10T10:42:49;92399.78;;;22.84;49.98
65376;BME280;51976;47.332;9.404;2023-06-10T10:45:15;92408.09;;;22.87;49.70
65376;BME280;51976;47.332;9.404;2023-06-10T10:47:41;92401.44;;;23.15;49.35
65376;BME280;51976;47.332;9.404;2023-06-10T10:50:14;92398.31;;;22.67;49.57
65376;BME280;51976;47.332;9.404;2023-06-10T10:52:52;92398.13;;;22.56;49.83
65376;BME280;51976;47.332;9.404;2023-06-10T10:55:19;92402.94;;;22.63;49.35
65376;BME280;51976;47.332;9.404;2023-06-10T10:57:54;92411.16;;;23.09;48.55
65376;BME280;51976;47.332;9.404;2023-06-10T11:00:36;92403.84;;;22.48;49.95
65376;BME280;51976;47.332;9.404;2023-06-10T11:03:06;92406.75;;;22.32;50.70
65376;BME280;51976;47.332;9.404;2023-06-10T11:05:46;92411.38;;;22.28;50.16
65376;BME280;51976;47.332;9.404;2023-06-10T11:08:15;92399.38;;;22.36;49.86
65376;BME280;51976;47.332;9.404;2023-06-10T11:11:01;92403.09;;;22.74;49.00
65376;BME280;51976;47.332;9.404;2023-06-10T11:13:58;92396.44;;;22.75;49.00
65376;BME280;51976;47.332;9.404;2023-06-10T11:16:26;92393.13;;;22.85;49.19
65376;BME280;51976;47.332;9.404;2023-06-10T11:18:53;92392.69;;;23.09;48.56
65376;BME280;51976;47.332;9.404;2023-06-10T11:21:19;92398.50;;;22.78;49.79
65376;BME280;51976;47.332;9.404;2023-06-10T11:23:44;92401.19;;;22.97;49.32
65376;BME280;51976;47.332;9.404;2023-06-10T11:29:03;92399.84;;;23.14;48.93
65376;BME280;51976;47.332;9.404;2023-06-10T11:31:37;92401.19;;;23.01;49.01
65376;BME280;51976;47.332;9.404;2023-06-10T11:34:04;92398.56;;;23.08;47.96
65376;BME280;51976;47.332;9.404;2023-06-10T11:36:31;92409.19;;;23.09;48.13
65376;BME280;51976;47.332;9.404;2023-06-10T11:39:02;92396.03;;;23.22;48.24
65376;BME280;51976;47.332;9.404;2023-06-10T11:41:29;92394.44;;;23.77;46.48
65376;BME280;51976;47.332;9.404;2023-06-10T11:43:56;92390.03;;;23.43;47.18
65376;BME280;51976;47.332;9.404;2023-06-10T11:46:22;92394.81;;;22.93;48.55
65376;BME280;51976;47.332;9.404;2023-06-10T11:48:55;92403.53;;;22.99;48.93
65376;BME280;51976;47.332;9.404;2023-06-10T11:51:21;92392.50;;;22.95;48.60
65376;BME280;51976;47.332;9.404;2023-06-10T11:53:48;92396.78;;;22.92;48.03
65376;BME280;51976;47.332;9.404;2023-06-10T11:56:24;92387.56;;;23.08;46.71
65376;BME280;51976;47.332;9.404;2023-06-10T11:58:55;92394.94;;;22.77;48.59
65376;BME280;51976;47.332;9.404;2023-06-10T12:01:22;92388.47;;;22.89;47.93
65376;BME280;51976;47.332;9.404;2023-06-10T12:03:55;92395.69;;;23.01;48.24
65376;BME280;51976;47.332;9.404;2023-06-10T12:06:21;92391.38;;;23.00;47.54
65376;BME280;51976;47.332;9.404;2023-06-10T12:08:46;92394.47;;;22.98;47.56
65376;BME280;51976;47.332;9.404;2023-06-10T12:11:12;92389.41;;;23.00;47.93
65376;BME280;51976;47.332;9.404;2023-06-10T12:13:46;92392.41;;;23.44;45.89
65376;BME280;51976;47.332;9.404;2023-06-10T12:16:15;92390.88;;;23.47;45.73
65376;BME280;51976;47.332;9.404;2023-06-10T12:18:43;92380.66;;;23.47;45.71
65376;BME280;51976;47.332;9.404;2023-06-10T12:21:18;92382.56;;;23.13;46.43
65376;BME280;51976;47.332;9.404;2023-06-10T12:24:07;92385.50;;;23.01;46.02
65376;BME280;51976;47.332;9.404;2023-06-10T12:26:34;92380.50;;;23.37;45.82
65376;BME280;51976;47.332;9.404;2023-06-10T12:29:01;92376.19;;;23.09;46.29
65376;BME280;51976;47.332;9.404;2023-06-10T12:31:27;92379.56;;;22.99;46.08
65376;BME280;51976;47.332;9.404;2023-06-10T12:34:07;92381.19;;;23.30;45.36
65376;BME280;51976;47.332;9.404;2023-06-10T12:36:33;92378.84;;;23.58;44.28
65376;BME280;51976;47.332;9.404;2023-06-10T12:39:05;92369.72;;;23.51;44.53
65376;BME280;51976;47.332;9.404;2023-06-10T12:41:30;92366.34;;;23.65;44.04
65376;BME280;51976;47.332;9.404;2023-06-10T12:43:57;92368.13;;;23.83;44.16
65376;BME280;51976;47.332;9.404;2023-06-10T12:46:22;92374.94;;;23.59;44.07
65376;BME280;51976;47.332;9.404;2023-06-10T12:48:51;92375.22;;;23.51;44.11
65376;BME280;51976;47.332;9.404;2023-06-10T12:51:20;92378.06;;;23.58;44.63
65376;BME280;51976;47.332;9.404;2023-06-10T12:53:46;92372.16;;;23.89;43.87
65376;BME280;51976;47.332;9.404;2023-06-10T12:56:11;92364.50;;;23.72;43.63
65376;BME280;51976;47.332;9.404;2023-06-10T12:58:37;92369.41;;;23.89;44.00
65376;BME280;51976;47.332;9.404;2023-06-10T13:01:02;92359.59;;;23.92;43.54
65376;BME280;51976;47.332;9.404;2023-06-10T13:03:29;92362.03;;;24.38;43.57